Time;durP1;ratioP1;P1;durP2;ratioP2;P2;SDS_P1;SDS_P2;PMS_P1;PMS_P2;Temp;Humidity;BMP_temperature;BMP_pressure;BME280_temperature;BME280_humidity;BME280_pressure;Samples;Min_cycle;Max_cycle;Signal;HPM_P1;HPM_P2
2022/06/03 00:04:09;;;;;;;;;;;;;;;;;;;;;
2022/06/03 00:07:25;;;;;;;;;;;;;;;;;;;;;
2022/06/03 00:10:55;;;;;;;;;;;;;;;;;;;;;
2022/06/03 00:14:31;;;;;;;;;;;;;;;;;;;;;
2022/06/03 00:18:01;;;;;;;6.32;5.68;;;12.60;99.90;;;;;;6105151;23;20099;-91
2022/06/03 00:21:43;;;;;;;;;;;;;;;;;;;;;
2022/06/03 00:29:31;;;;;;;;;;;;;;;;;;;;;
2022/06/03 00:32:58;;;;;;;;;;;;;;;;;;;;;
2022/06/03 00:36:19;;;;;;;8.93;6.32;;;12.30;99.90;;;;;;5950656;23;20032;-90
2022/06/03 00:40:02;;;;;;;9.30;5.85;;;12.30;99.90;;;;;;5986154;24;20033;-89
2022/06/03 00:47:53;;;;;;;7.82;6.22;;;12.40;99.90;;;;;;5980736;24;20385;-92
2022/06/03 00:50:55;;;;;;;7.07;5.63;;;12.30;99.90;;;;;;5983372;24;20024;-91
2022/06/03 00:54:40;;;;;;;;;;;;;;;;;;;;;
2022/06/03 00:58:23;;;;;;;9.07;5.63;;;12.20;99.90;;;;;;5924024;24;20032;-90
2022/06/03 01:01:32;;;;;;;7.28;5.82;;;12.10;99.90;;;;;;5942865;24;20088;-91
2022/06/03 01:08:45;;;;;;;7.30;6.25;;;12.30;99.90;;;;;;6080027;23;20019;-90
2022/06/03 01:12:40;;;;;;;7.35;5.70;;;12.30;99.90;;;;;;6126425;23;20036;-93
2022/06/03 01:16:04;;;;;;;;;;;;;;;;;;;;;
2022/06/03 01:19:36;;;;;;;12.43;6.50;;;12.20;99.90;;;;;;6188367;23;20112;-93
2022/06/03 01:23:03;;;;;;;10.10;6.22;;;12.20;99.90;;;;;;6169208;23;20064;-91
2022/06/03 01:26:10;;;;;;;7.05;6.20;;;12.30;99.90;;;;;;6170796;23;20025;-88
2022/06/03 01:29:42;;;;;;;;;;;;;;;;;;;;;
2022/06/03 01:32:59;;;;;;;10.70;7.45;;;12.10;99.90;;;;;;6190834;23;20029;-91
2022/06/03 01:37:13;;;;;;;;;;;;;;;;;;;;;
2022/06/03 01:40:56;;;;;;;11.55;7.07;;;12.10;99.90;;;;;;6043560;23;20042;-91
2022/06/03 01:44:17;;;;;;;;;;;12.20;99.90;;;;;;6005679;23;20023;-82
2022/06/03 01:47:28;;;;;;;10.07;7.00;;;12.20;99.90;;;;;;6006524;23;19906;-82
2022/06/03 01:54:03;;;;;;;9.95;7.72;;;12.00;99.90;;;;;;6212318;22;20103;-80
2022/06/03 01:57:29;;;;;;;9.50;8.48;;;11.90;99.90;;;;;;6188505;23;20033;-91
2022/06/03 02:04:47;;;;;;;;;;;;;;;;;;;;;
2022/06/03 02:07:59;;;;;;;10.05;9.05;;;11.80;99.90;;;;;;6197186;23;20025;-91
2022/06/03 02:11:25;;;;;;;;;;;;;;;;;;;;;
2022/06/03 02:18:46;;;;;;;9.50;8.32;;;11.90;99.90;;;;;;6200816;23;20077;-91
2022/06/03 02:25:01;;;;;;;10.95;8.43;;;11.90;99.90;;;;;;6202090;23;20100;-90
2022/06/03 02:28:42;;;;;;;;;;;;;;;;;;;;;
2022/06/03 02:32:42;;;;;;;;;;;;;;;;;;;;;
2022/06/03 02:40:36;;;;;;;8.55;7.65;;;12.20;99.90;;;;;;5951915;24;20036;-87
2022/06/03 02:44:22;;;;;;;;;;;;;;;;;;;;;
2022/06/03 02:47:44;;;;;;;;;;;;;;;;;;;;;
2022/06/03 02:51:22;;;;;;;;;;;;;;;;;;;;;
2022/06/03 02:55:18;;;;;;;8.43;7.28;;;12.50;99.90;;;;;;5849691;24;20030;-91
2022/06/03 02:59:07;;;;;;;;;;;;;;;;;;;;;
2022/06/03 03:02:38;;;;;;;;;;;;;;;;;;;;;
2022/06/03 03:06:36;;;;;;;9.20;7.95;;;12.70;99.90;;;;;;5933957;24;20029;-91
2022/06/03 03:10:03;;;;;;;;;;;;;;;;;;;;;
2022/06/03 03:21:28;;;;;;;;;;;;;;;;;;;;;
2022/06/03 03:31:12;;;;;;;;;;;;;;;;;;;;;
2022/06/03 03:34:09;;;;;;;7.38;6.47;;;12.70;99.90;;;;;;5936171;24;20024;-92
2022/06/03 03:37:32;;;;;;;;;;;;;;;;;;;;;
2022/06/03 03:44:36;;;;;;;;;;;;;;;;;;;;;
2022/06/03 03:48:01;;;;;;;6.88;6.28;;;12.60;99.90;;;;;;5977897;23;20032;-92
2022/06/03 03:52:06;;;;;;;;;;;;;;;;;;;;;
2022/06/03 04:00:01;;;;;;;7.35;6.60;;;12.90;99.90;;;;;;6038793;23;20023;-91
2022/06/03 04:03:30;;;;;;;9.68;7.30;;;13.00;99.90;;;;;;5956546;24;20036;-90
2022/06/03 04:07:26;;;;;;;8.48;7.47;;;13.00;99.90;;;;;;5959643;24;20269;-90
2022/06/03 04:14:37;;;;;;;7.75;6.93;;;13.10;99.90;;;;;;5918248;23;20095;-92
2022/06/03 04:18:49;;;;;;;10.77;6.82;;;13.20;99.90;;;;;;6034057;23;20043;-90
2022/06/03 04:22:14;;;;;;;8.55;6.70;;;13.20;99.90;;;;;;6015911;23;20304;-89
2022/06/03 04:25:38;;;;;;;8.70;7.45;;;13.10;99.90;;;;;;6036922;23;20030;-90
2022/06/03 04:29:34;;;;;;;8.02;6.97;;;13.00;99.90;;;;;;6022921;23;20112;-91
2022/06/03 04:32:27;;;;;;;10.48;6.97;;;13.00;99.90;;;;;;6062246;23;20054;-90
2022/06/03 04:35:33;;;;;;;9.52;7.10;;;13.00;99.90;;;;;;6095234;23;20470;-89
2022/06/03 04:38:38;;;;;;;8.30;7.00;;;13.00;99.90;;;;;;6098062;23;20058;-88
2022/06/03 04:41:46;;;;;;;9.90;6.82;;;13.10;99.90;;;;;;6077473;23;20129;-90
2022/06/03 04:45:12;;;;;;;7.82;5.97;;;13.00;99.90;;;;;;6129488;23;20112;-90
2022/06/03 04:48:44;;;;;;;8.07;5.82;;;12.80;99.90;;;;;;6167584;23;20021;-89
2022/06/03 04:56:09;;;;;;;9.30;7.93;;;13.00;99.90;;;;;;6067588;23;20007;-90
2022/06/03 04:59:53;;;;;;;8.32;6.53;;;13.20;99.90;;;;;;6012894;23;20031;-84
2022/06/03 05:03:15;;;;;;;9.88;7.65;;;13.40;99.90;;;;;;6151293;23;20044;-89
2022/06/03 05:06:38;;;;;;;9.77;7.80;;;13.50;99.90;;;;;;6117423;23;20037;-88
2022/06/03 05:10:04;;;;;;;10.13;8.82;;;13.70;99.90;;;;;;6139447;23;20057;-85
2022/06/03 05:13:12;;;;;;;9.77;8.18;;;13.90;99.90;;;;;;6144819;23;20030;-86
2022/06/03 05:16:10;;;;;;;9.15;7.55;;;14.10;99.90;;;;;;6135970;23;20065;-88
2022/06/03 05:19:33;;;;;;;10.38;7.45;;;14.20;99.90;;;;;;6134561;23;20158;-88
2022/06/03 05:22:42;;;;;;;7.07;6.38;;;14.40;99.90;;;;;;6114764;23;20025;-86
2022/06/03 05:25:52;;;;;;;8.98;7.47;;;14.50;99.90;;;;;;6118060;23;20157;-87
2022/06/03 05:49:59;;;;;;;;;;;;;;;;;;;;;
2022/06/03 05:58:08;;;;;;;8.88;7.97;;;15.90;99.90;;;;;;5962320;23;20365;-89
2022/06/03 06:06:15;;;;;;;9.15;7.00;;;16.20;99.90;;;;;;5826397;24;20015;-86
2022/06/03 06:09:37;;;;;;;9.43;7.15;;;16.40;99.90;;;;;;5829676;24;20033;-85
2022/06/03 06:12:36;;;;;;;10.57;9.07;;;16.70;99.90;;;;;;6070838;23;20030;-84
2022/06/03 06:15:59;;;;;;;9.25;7.40;;;16.80;99.90;;;;;;6051055;23;20038;-84
2022/06/03 06:19:24;;;;;;;7.43;6.72;;;17.00;99.90;;;;;;6101282;23;20034;-86
2022/06/03 06:22:26;;;;;;;13.15;6.75;;;17.10;99.90;;;;;;6192888;23;20021;-87
2022/06/03 06:25:28;;;;;;;8.15;6.70;;;17.40;99.90;;;;;;6201582;23;20036;-87
2022/06/03 06:28:34;;;;;;;6.90;5.65;;;17.60;99.90;;;;;;6200640;23;20029;-89
2022/06/03 06:32:04;;;;;;;7.95;5.57;;;18.00;99.90;;;;;;6206835;22;20023;-86
2022/06/03 06:35:29;;;;;;;7.90;6.07;;;18.50;99.90;;;;;;6209173;22;20057;-85
2022/06/03 06:41:52;;;;;;;;;;;;;;;;;;;;;
2022/06/03 06:54:03;;;;;;;7.50;5.10;;;19.80;99.90;;;;;;6189601;22;20024;-90
2022/06/03 06:58:20;;;;;;;;;;;;;;;;;;;;;
2022/06/03 08:41:54;;;;;;;;;;;;;;;;;;;;;
2022/06/03 08:45:21;;;;;;;2.95;2.30;;;28.70;70.10;;;;;;5998413;23;20031;-91
2022/06/03 09:01:51;;;;;;;3.38;2.20;;;29.80;73.80;;;;;;5986920;23;20456;-89
2022/06/03 09:05:38;;;;;;;2.92;2.35;;;30.10;62.20;;;;;;5878455;24;20148;-91
2022/06/03 09:13:07;;;;;;;4.22;2.00;;;30.80;61.70;;;;;;5876098;24;20491;-91
2022/06/03 10:19:13;;;;;;;3.95;1.60;;;32.30;56.10;;;;;;5925845;24;20025;-92
2022/06/03 10:26:01;;;;;;;3.05;1.80;;;31.90;54.80;;;;;;6023297;23;20383;-91
2022/06/03 10:28:51;;;;;;;4.43;1.90;;;31.20;55.70;;;;;;6097134;23;20046;-85
2022/06/03 10:31:50;;;;;;;;;;;;;;;;;;;;;
2022/06/03 10:34:44;;;;;;;3.30;1.52;;;32.10;53.00;;;;;;6110885;23;20030;-89
2022/06/03 11:59:39;;;;;;;;;;;;;;;;;;;;;
2022/06/03 12:03:06;;;;;;;2.20;2.00;;;27.70;64.70;;;;;;6074645;23;20033;-88
2022/06/03 12:10:30;;;;;;;3.67;2.17;;;27.00;70.70;;;;;;6167265;23;20009;-89
2022/06/03 12:13:59;;;;;;;;;;;;;;;;;;;;;
2022/06/03 12:18:14;;;;;;;;;;;;;;;;;;;;;
2022/06/03 12:21:48;;;;;;;;;;;;;;;;;;;;;
2022/06/03 12:29:19;;;;;;;;;;;;;;;;;;;;;
2022/06/03 12:52:49;;;;;;;3.42;2.67;;;25.40;77.60;;;;;;6192343;23;20091;-87
2022/06/03 12:55:38;;;;;;;4.65;2.30;;;25.40;84.90;;;;;;6171504;23;20039;-87
2022/06/03 12:59:31;;;;;;;;;;;;;;;;;;;;;
2022/06/03 13:02:57;;;;;;;4.10;2.25;;;25.90;82.70;;;;;;6110053;23;20074;-89
2022/06/03 13:05:55;;;;;;;2.40;2.20;;;26.70;82.00;;;;;;6078359;23;20026;-89
2022/06/03 13:11:58;;;;;;;4.10;2.10;;;28.40;69.60;;;;;;6110574;23;20057;-84
2022/06/03 13:14:48;;;;;;;2.75;2.08;;;28.60;67.30;;;;;;6116506;23;20026;-87
2022/06/03 13:18:10;;;;;;;3.20;2.33;;;28.40;65.80;;;;;;6087587;23;20118;-88
2022/06/03 13:21:00;;;;;;;3.47;1.80;;;27.90;66.10;;;;;;6098932;23;20433;-89
2022/06/03 13:24:28;;;;;;;3.28;2.10;;;27.70;68.10;;;;;;6098768;23;20034;-88
2022/06/03 13:27:23;;;;;;;4.00;2.63;;;27.30;72.40;;;;;;6098364;23;20093;-87
2022/06/03 13:30:15;;;;;;;2.30;2.10;;;26.80;79.30;;;;;;6100454;23;20058;-86
2022/06/03 13:33:17;;;;;;;3.60;2.20;;;26.40;80.30;;;;;;6079597;23;20038;-86
2022/06/03 13:36:07;;;;;;;;;;;26.20;77.80;;;;;;6080780;23;20042;-87
2022/06/03 13:38:55;;;;;;;2.60;2.40;;;26.10;82.10;;;;;;6101468;23;19916;-88
2022/06/03 13:45:01;;;;;;;11.35;3.45;;;26.10;82.20;;;;;;6187631;23;20040;-87
2022/06/03 13:47:55;;;;;;;8.13;3.30;;;25.80;82.00;;;;;;6186321;23;20029;-89
2022/06/03 13:51:16;;;;;;;5.93;3.65;;;25.50;82.90;;;;;;6166238;23;20040;-84
2022/06/03 13:58:15;;;;;;;7.68;3.90;;;25.20;87.00;;;;;;6186799;23;20060;-88
2022/06/03 14:01:31;;;;;;;10.57;4.05;;;25.00;90.00;;;;;;6187809;23;20036;-86
2022/06/03 14:04:32;;;;;;;12.18;4.47;;;24.80;91.40;;;;;;6184605;23;20056;-86
2022/06/03 14:07:40;;;;;;;6.13;3.75;;;24.70;92.30;;;;;;6184826;23;20025;-87
2022/06/03 14:10:42;;;;;;;8.15;4.50;;;24.60;94.80;;;;;;6185512;23;20029;-85
2022/06/03 14:13:42;;;;;;;5.32;4.25;;;24.50;97.50;;;;;;6167876;23;20389;-86
2022/06/03 14:16:48;;;;;;;9.50;4.85;;;24.40;99.50;;;;;;6187801;23;20029;-87
2022/06/03 14:19:35;;;;;;;8.98;5.28;;;24.30;99.50;;;;;;6170755;23;20032;-86
2022/06/03 14:23:04;;;;;;;8.73;4.63;;;24.30;98.20;;;;;;6167783;23;20097;-84
2022/06/03 14:26:01;;;;;;;18.17;5.18;;;24.50;99.90;;;;;;6186959;23;20072;-87
2022/06/03 14:29:12;;;;;;;12.70;4.95;;;24.60;97.20;;;;;;6189956;23;20340;-86
2022/06/03 14:32:10;;;;;;;7.20;4.75;;;24.80;97.30;;;;;;6187020;23;20029;-87
2022/06/03 14:35:09;;;;;;;10.23;5.35;;;24.80;97.10;;;;;;6187236;23;20025;-86
2022/06/03 14:38:08;;;;;;;15.63;5.22;;;24.90;96.70;;;;;;6188337;23;20033;-90
2022/06/03 14:40:58;;;;;;;9.98;4.18;;;25.00;97.50;;;;;;6185584;23;20025;-92
2022/06/03 14:43:45;;;;;;;8.30;4.55;;;25.00;98.50;;;;;;6186925;23;20428;-93
2022/06/03 14:46:49;;;;;;;9.95;4.50;;;25.20;96.80;;;;;;6188692;23;20032;-91
2022/06/03 14:49:45;;;;;;;6.25;3.95;;;25.40;98.70;;;;;;6181407;23;20036;-91
2022/06/03 14:52:41;;;;;;;7.75;4.50;;;25.70;97.40;;;;;;6182761;23;20088;-92
2022/06/03 14:55:43;;;;;;;7.53;4.55;;;25.80;96.80;;;;;;6179313;23;20029;-91
2022/06/03 14:58:48;;;;;;;5.72;3.97;;;25.70;96.00;;;;;;6174227;23;20048;-91
2022/06/03 15:01:47;;;;;;;7.45;4.28;;;25.90;94.90;;;;;;6198441;23;20025;-90
2022/06/03 15:04:51;;;;;;;9.43;4.07;;;26.00;94.90;;;;;;6197484;23;20393;-90
2022/06/03 15:07:49;;;;;;;4.82;4.15;;;26.30;94.90;;;;;;6176878;23;20025;-90
2022/06/03 15:10:50;;;;;;;8.95;3.75;;;26.30;94.10;;;;;;6197889;23;20021;-90
2022/06/03 15:13:38;;;;;;;7.57;4.47;;;26.30;93.40;;;;;;6176712;23;20037;-88
2022/06/03 15:16:26;;;;;;;8.07;4.03;;;26.50;92.80;;;;;;6174777;23;20108;-87
2022/06/03 15:19:34;;;;;;;7.03;3.75;;;26.40;92.20;;;;;;6191076;23;20040;-86
2022/06/03 15:22:24;;;;;;;8.50;3.80;;;26.10;92.00;;;;;;6192975;23;20035;-85
2022/06/03 15:25:12;;;;;;;7.72;3.83;;;26.30;92.80;;;;;;6175456;23;20032;-85
2022/06/03 15:28:05;;;;;;;8.20;3.40;;;26.30;93.50;;;;;;6198334;23;20032;-88
2022/06/03 15:31:18;;;;;;;6.05;3.65;;;26.40;93.30;;;;;;6180481;23;20029;-86
2022/06/03 15:34:13;;;;;;;5.43;3.63;;;26.50;89.20;;;;;;6207904;22;20013;-93
2022/06/03 15:37:05;;;;;;;3.53;3.22;;;26.60;91.30;;;;;;6204209;23;20029;-91
2022/06/03 15:40:02;;;;;;;5.63;3.10;;;27.00;92.60;;;;;;6182442;23;20027;-93
2022/06/03 15:47:27;;;;;;;;;;;;;;;;;;;;;
2022/06/03 15:51:08;;;;;;;12.13;3.35;;;27.80;82.70;;;;;;6071493;23;20174;-92
2022/06/03 15:55:50;;;;;;;6.80;3.92;;;27.20;85.20;;;;;;6084810;23;20097;-94
2022/06/03 16:04:11;;;;;;;5.97;4.03;;;26.70;87.20;;;;;;6016761;23;20043;-92
2022/06/03 16:11:24;;;;;;;11.82;3.88;;;27.70;86.10;;;;;;6131692;23;20082;-91
2022/06/03 16:14:35;;;;;;;6.15;3.72;;;28.20;83.40;;;;;;6125539;23;20444;-90
2022/06/03 16:17:47;;;;;;;6.05;3.70;;;27.90;84.00;;;;;;6158990;23;20025;-89
2022/06/03 16:20:56;;;;;;;6.40;3.63;;;27.50;82.70;;;;;;6188621;23;20028;-88
2022/06/03 16:23:46;;;;;;;6.45;3.80;;;26.70;85.10;;;;;;6169647;23;20025;-91
2022/06/03 16:26:55;;;;;;;4.45;3.85;;;26.50;84.90;;;;;;6195909;23;20021;-87
2022/06/03 16:29:52;;;;;;;6.85;3.50;;;26.30;87.40;;;;;;6199269;23;20033;-90
2022/06/03 16:33:17;;;;;;;9.85;3.40;;;26.10;86.70;;;;;;6176718;23;20467;-91
2022/06/03 16:36:11;;;;;;;5.35;3.35;;;25.60;87.50;;;;;;6198326;23;20154;-86
2022/06/03 16:39:43;;;;;;;4.93;3.42;;;25.20;88.30;;;;;;6200669;23;20048;-87
2022/06/03 16:43:05;;;;;;;6.57;3.40;;;25.30;90.10;;;;;;6187620;23;20021;-87
2022/06/03 16:46:24;;;;;;;5.13;2.83;;;25.60;88.50;;;;;;6163368;23;20069;-87
2022/06/03 16:49:23;;;;;;;4.10;2.58;;;25.50;88.50;;;;;;6161372;23;20118;-86
2022/06/03 16:52:26;;;;;;;2.38;2.13;;;25.20;87.80;;;;;;6162340;23;20025;-87
2022/06/03 16:55:24;;;;;;;4.88;2.22;;;24.90;85.40;;;;;;6184702;23;20366;-88
2022/06/03 16:58:17;;;;;;;4.25;2.22;;;24.60;85.30;;;;;;6166917;23;20029;-91
2022/06/03 17:01:12;;;;;;;3.22;2.30;;;24.20;84.60;;;;;;6188067;23;20065;-92
2022/06/03 17:04:09;;;;;;;5.75;2.80;;;24.10;87.00;;;;;;6185985;23;20029;-92
2022/06/03 17:07:06;;;;;;;3.08;1.73;;;24.00;84.30;;;;;;6186777;23;20029;-90
2022/06/03 17:09:56;;;;;;;4.88;1.90;;;23.80;83.40;;;;;;6188361;23;20021;-90
2022/06/03 17:12:48;;;;;;;5.60;2.05;;;23.60;84.60;;;;;;6174521;23;20025;-91
2022/06/03 17:15:43;;;;;;;3.65;1.80;;;23.50;84.90;;;;;;6166297;23;20108;-89
2022/06/03 17:18:37;;;;;;;5.00;2.15;;;23.50;85.30;;;;;;6184634;23;20361;-93
2022/06/03 17:21:46;;;;;;;3.38;2.30;;;23.40;85.70;;;;;;6149060;23;20029;-92
2022/06/03 17:25:07;;;;;;;3.28;2.30;;;23.30;87.00;;;;;;6162345;23;20021;-92
2022/06/03 17:28:13;;;;;;;3.47;2.33;;;23.10;88.60;;;;;;6168484;23;20078;-92
2022/06/03 17:31:04;;;;;;;4.10;1.88;;;23.00;89.40;;;;;;6187644;23;20025;-90
2022/06/03 17:33:57;;;;;;;6.53;2.20;;;22.90;90.60;;;;;;6184903;23;20028;-90
2022/06/03 17:37:00;;;;;;;6.72;2.47;;;22.80;89.40;;;;;;6169313;23;20025;-92
2022/06/03 17:40:23;;;;;;;5.55;2.72;;;22.70;90.00;;;;;;6167026;23;20515;-87
2022/06/03 17:43:52;;;;;;;3.60;2.13;;;22.60;90.40;;;;;;6068615;23;20340;-88
2022/06/03 17:47:09;;;;;;;2.58;1.92;;;22.60;91.00;;;;;;6105291;23;20442;-91
2022/06/03 17:50:04;;;;;;;3.13;1.90;;;22.60;90.50;;;;;;6171560;23;20025;-86
2022/06/03 17:56:33;;;;;;;3.45;1.70;;;22.50;90.50;;;;;;6185608;23;20036;-91
2022/06/03 17:59:53;;;;;;;4.68;2.10;;;22.40;89.80;;;;;;6184732;23;20103;-89
2022/06/03 18:02:40;;;;;;;9.57;2.40;;;22.30;89.80;;;;;;6166593;23;20077;-91
2022/06/03 18:05:49;;;;;;;3.28;1.80;;;22.20;89.50;;;;;;6167574;23;20036;-90
2022/06/03 18:08:57;;;;;;;4.32;1.95;;;22.10;90.30;;;;;;6168487;23;20229;-91
2022/06/03 18:11:49;;;;;;;6.22;2.00;;;22.00;90.00;;;;;;6168531;23;20056;-91
2022/06/03 18:14:52;;;;;;;4.38;2.17;;;21.90;90.80;;;;;;6167972;23;20040;-90
2022/06/03 18:18:06;;;;;;;5.32;2.15;;;21.90;90.70;;;;;;6168255;23;20302;-89
2022/06/03 18:20:53;;;;;;;3.45;1.88;;;21.80;91.00;;;;;;6169683;23;20067;-89
2022/06/03 18:23:59;;;;;;;4.25;1.80;;;21.70;91.40;;;;;;6166363;23;20405;-89
2022/06/03 18:27:05;;;;;;;4.22;2.10;;;21.50;92.00;;;;;;6189004;23;20076;-90
2022/06/03 18:30:11;;;;;;;8.95;3.63;;;21.50;92.10;;;;;;6169421;23;20084;-93
2022/06/03 18:33:28;;;;;;;8.10;4.45;;;21.40;94.40;;;;;;6169536;23;20038;-93
2022/06/03 18:36:16;;;;;;;6.15;3.60;;;21.20;97.20;;;;;;6187697;23;20029;-93
2022/06/03 18:39:22;;;;;;;10.90;5.78;;;21.10;95.40;;;;;;6177874;23;20389;-91
2022/06/03 18:46:33;;;;;;;8.05;6.38;;;20.80;99.90;;;;;;6187471;23;20320;-92
2022/06/03 18:49:32;;;;;;;9.25;6.22;;;20.70;99.90;;;;;;6187996;23;20026;-93
2022/06/03 18:52:54;;;;;;;10.77;6.05;;;20.50;99.90;;;;;;6185280;23;20416;-95
2022/06/03 18:56:27;;;;;;;13.07;6.20;;;20.20;99.90;;;;;;6187231;23;20064;-89
2022/06/03 18:59:23;;;;;;;5.85;4.22;;;20.10;99.90;;;;;;6185631;23;20021;-91
2022/06/03 19:02:27;;;;;;;7.05;3.97;;;20.10;99.90;;;;;;6165146;23;20021;-90
2022/06/03 19:05:24;;;;;;;7.97;5.80;;;20.00;99.90;;;;;;6187069;23;20029;-91
2022/06/03 19:08:37;;;;;;;9.85;6.00;;;19.90;99.90;;;;;;6167241;23;20032;-91
2022/06/03 19:11:42;;;;;;;8.68;5.90;;;19.80;99.90;;;;;;6186851;23;20025;-90
2022/06/03 19:15:04;;;;;;;11.45;6.90;;;19.60;99.90;;;;;;6186567;23;20036;-91
2022/06/03 19:18:14;;;;;;;11.65;7.22;;;19.40;99.90;;;;;;6184750;23;20085;-92
2022/06/03 19:21:13;;;;;;;10.95;7.35;;;19.40;99.90;;;;;;6167053;23;20025;-91
2022/06/03 19:24:15;;;;;;;11.98;7.40;;;19.20;99.90;;;;;;6165395;23;20114;-91
2022/06/03 19:27:15;;;;;;;8.87;7.33;;;19.10;99.90;;;;;;6167605;23;20025;-90
2022/06/03 19:30:14;;;;;;;11.23;8.65;;;19.00;99.90;;;;;;6167341;23;20029;-89
2022/06/03 19:33:02;;;;;;;12.70;8.00;;;19.00;99.90;;;;;;6189317;23;20029;-92
2022/06/03 19:35:55;;;;;;;10.10;7.90;;;18.90;99.90;;;;;;6186987;23;20056;-89
2022/06/03 19:39:08;;;;;;;9.27;8.27;;;18.80;99.90;;;;;;6190086;23;20029;-90
2022/06/03 19:42:08;;;;;;;10.98;8.32;;;18.70;99.90;;;;;;6188233;23;20025;-91
2022/06/03 19:45:20;;;;;;;13.35;8.32;;;18.60;99.90;;;;;;6171336;23;20021;-89
2022/06/03 19:48:23;;;;;;;10.07;8.90;;;18.50;99.90;;;;;;6191235;23;20131;-90
2022/06/03 19:51:43;;;;;;;8.93;8.13;;;18.50;99.90;;;;;;6201473;23;20035;-90
2022/06/03 19:54:49;;;;;;;11.30;8.60;;;18.40;99.90;;;;;;6199661;23;20024;-91
2022/06/03 19:57:46;;;;;;;16.48;9.57;;;18.30;99.90;;;;;;6176977;23;20074;-90
2022/06/03 20:00:48;;;;;;;10.52;8.27;;;18.20;99.90;;;;;;6201428;23;20056;-92
2022/06/03 20:04:01;;;;;;;9.77;8.75;;;18.00;99.90;;;;;;6204782;23;20092;-92
2022/06/03 20:07:09;;;;;;;;;;;17.90;99.90;;;;;;6183056;23;20031;-91
2022/06/03 20:10:05;;;;;;;9.45;8.23;;;17.90;99.90;;;;;;6204392;23;19924;-93
2022/06/03 20:16:16;;;;;;;10.13;8.07;;;17.80;99.90;;;;;;6203052;23;20055;-92
2022/06/03 20:19:15;;;;;;;9.35;8.45;;;17.70;99.90;;;;;;6184804;23;20031;-90
2022/06/03 20:22:22;;;;;;;10.35;8.35;;;17.70;99.90;;;;;;6186252;23;20059;-87
2022/06/03 20:25:35;;;;;;;13.52;10.00;;;17.50;99.90;;;;;;6183705;23;20029;-90
2022/06/03 20:28:23;;;;;;;11.35;9.45;;;17.40;99.90;;;;;;6185391;23;20025;-92
2022/06/03 20:31:16;;;;;;;14.20;10.70;;;17.40;99.90;;;;;;6181167;23;20021;-92
2022/06/03 20:34:15;;;;;;;11.57;10.48;;;17.30;99.90;;;;;;6199699;23;20025;-91
2022/06/03 20:37:25;;;;;;;12.48;10.77;;;17.20;99.90;;;;;;6171260;23;20090;-91
2022/06/03 20:40:33;;;;;;;14.27;12.73;;;17.20;99.90;;;;;;6175132;23;20092;-90
2022/06/03 20:43:58;;;;;;;15.98;11.98;;;17.30;99.90;;;;;;6174663;23;20013;-87
2022/06/03 20:47:00;;;;;;;12.63;11.02;;;17.40;99.90;;;;;;6155180;23;20082;-92
2022/06/03 20:50:08;;;;;;;13.68;12.00;;;17.50;99.90;;;;;;6173274;23;20059;-91
2022/06/03 20:52:58;;;;;;;12.65;11.32;;;17.50;99.90;;;;;;6168416;23;20025;-92
2022/06/03 20:55:46;;;;;;;18.90;12.27;;;17.50;99.90;;;;;;6170722;23;20021;-89
2022/06/03 20:58:38;;;;;;;14.90;11.85;;;17.40;99.90;;;;;;6175539;23;20065;-93
2022/06/03 21:01:38;;;;;;;13.10;10.50;;;17.40;99.90;;;;;;6150488;23;20037;-91
2022/06/03 21:14:13;;;;;;;13.43;10.73;;;17.20;99.90;;;;;;6176940;23;20019;-87
2022/06/03 21:17:09;;;;;;;13.05;11.05;;;17.00;99.90;;;;;;6159105;23;20040;-91
2022/06/03 21:20:00;;;;;;;14.25;11.82;;;16.90;99.90;;;;;;6156582;23;20053;-93
2022/06/03 21:23:05;;;;;;;13.15;11.38;;;16.80;99.90;;;;;;6153294;23;20104;-92
2022/06/03 21:25:55;;;;;;;15.20;13.60;;;16.70;99.90;;;;;;6160220;23;20014;-87
2022/06/03 21:28:47;;;;;;;17.02;13.70;;;16.60;99.90;;;;;;6160680;23;20037;-85
2022/06/03 21:32:39;;;;;;;20.73;15.98;;;16.50;99.90;;;;;;6165540;23;20009;-84
2022/06/03 21:35:32;;;;;;;;;;;16.40;99.90;;;;;;6169659;23;20024;-84
2022/06/03 21:38:33;;;;;;;20.52;14.75;;;16.30;99.90;;;;;;6161909;23;19916;-87
2022/06/03 21:41:34;;;;;;;19.30;16.02;;;16.20;99.90;;;;;;6160077;23;20040;-88
2022/06/03 21:44:31;;;;;;;20.73;17.10;;;16.20;99.90;;;;;;6181944;23;20029;-86
2022/06/03 21:47:50;;;;;;;20.80;17.98;;;16.10;99.90;;;;;;6182818;23;20009;-88
2022/06/03 21:50:43;;;;;;;22.25;17.65;;;16.00;99.90;;;;;;6181489;23;20014;-84
2022/06/03 21:53:49;;;;;;;;;;;16.00;99.90;;;;;;6180614;23;20076;-91
2022/06/03 21:56:57;;;;;;;20.13;17.15;;;16.00;99.90;;;;;;6181322;23;19923;-89
2022/06/03 22:00:03;;;;;;;22.77;18.13;;;16.10;99.90;;;;;;6160729;23;20014;-89
2022/06/03 22:02:57;;;;;;;17.95;16.02;;;16.10;99.90;;;;;;6160821;23;20057;-84
2022/06/03 22:05:49;;;;;;;20.37;15.80;;;16.10;99.90;;;;;;6183203;22;20033;-84
2022/06/03 22:08:44;;;;;;;19.70;15.27;;;16.10;99.90;;;;;;6161369;23;20233;-84
2022/06/03 22:14:42;;;;;;;16.88;14.85;;;16.10;99.90;;;;;;6180889;23;20033;-85
2022/06/03 22:17:31;;;;;;;19.58;15.25;;;16.00;99.90;;;;;;6160870;23;20025;-89
2022/06/03 22:20:26;;;;;;;17.83;16.00;;;15.90;99.90;;;;;;6183116;22;20022;-91
2022/06/03 22:23:20;;;;;;;20.75;17.83;;;15.80;99.90;;;;;;6160136;23;20013;-86
2022/06/03 22:26:15;;;;;;;19.10;17.20;;;15.70;99.90;;;;;;6180505;23;20069;-85
2022/06/03 22:29:14;;;;;;;21.70;18.15;;;15.70;99.90;;;;;;6181337;23;20037;-87
2022/06/03 22:32:10;;;;;;;20.17;17.55;;;15.60;99.90;;;;;;6157590;23;20013;-89
2022/06/03 22:35:13;;;;;;;22.48;19.02;;;15.60;99.90;;;;;;6181112;23;20053;-89
2022/06/03 22:41:43;;;;;;;23.27;17.70;;;15.50;99.90;;;;;;6179619;23;20056;-90
2022/06/03 22:44:33;;;;;;;20.85;17.55;;;15.60;99.90;;;;;;6177267;23;20053;-88
2022/06/03 22:47:20;;;;;;;29.10;17.38;;;15.50;99.90;;;;;;6150267;23;20022;-90
2022/06/03 22:50:07;;;;;;;21.20;16.95;;;15.50;99.90;;;;;;6172115;23;20026;-89
2022/06/03 22:52:57;;;;;;;20.20;15.82;;;15.50;99.90;;;;;;6176433;23;20026;-93
2022/06/03 22:55:46;;;;;;;19.05;15.50;;;15.40;99.90;;;;;;6170653;23;20026;-92
2022/06/03 22:58:33;;;;;;;16.15;14.45;;;15.40;99.90;;;;;;6153417;23;20026;-84
2022/06/03 23:01:25;;;;;;;17.88;13.60;;;15.50;99.90;;;;;;6167374;23;20098;-83
2022/06/03 23:04:13;;;;;;;15.50;13.88;;;15.40;99.90;;;;;;6145760;23;20053;-84
2022/06/03 23:07:00;;;;;;;19.25;15.27;;;15.30;99.90;;;;;;6138762;23;20037;-85
2022/06/03 23:09:49;;;;;;;21.75;16.58;;;15.30;99.90;;;;;;6154848;23;20405;-84
2022/06/03 23:12:37;;;;;;;19.80;15.95;;;15.30;99.90;;;;;;6157784;23;20039;-85
2022/06/03 23:15:24;;;;;;;19.33;17.35;;;15.30;99.90;;;;;;6134278;23;20029;-83
2022/06/03 23:18:12;;;;;;;19.25;16.60;;;15.30;99.90;;;;;;6155723;23;20087;-84
2022/06/03 23:21:04;;;;;;;22.80;17.42;;;15.20;99.90;;;;;;6134408;23;20034;-84
2022/06/03 23:23:52;;;;;;;19.92;17.55;;;15.20;99.90;;;;;;6155072;23;20088;-83
2022/06/03 23:26:39;;;;;;;19.63;16.67;;;15.10;99.90;;;;;;6154328;23;20066;-85
2022/06/03 23:29:26;;;;;;;22.67;16.77;;;15.10;99.90;;;;;;6133610;23;20025;-84
2022/06/03 23:32:58;;;;;;;20.17;17.80;;;15.10;99.90;;;;;;6136244;23;20087;-85
2022/06/03 23:35:46;;;;;;;18.27;16.25;;;15.10;99.90;;;;;;6154477;23;20033;-84
2022/06/03 23:38:33;;;;;;;20.35;16.85;;;15.00;99.90;;;;;;6135652;23;20026;-85
2022/06/03 23:47:37;;;;;;;22.10;19.42;;;15.00;99.90;;;;;;6155596;23;20128;-86
2022/06/03 23:50:31;;;;;;;22.75;19.45;;;15.00;99.90;;;;;;6155368;23;20025;-85
2022/06/03 23:53:21;;;;;;;21.77;17.67;;;15.00;99.90;;;;;;6135041;23;20468;-85
2022/06/03 23:56:08;;;;;;;23.00;19.17;;;14.90;99.90;;;;;;6155474;23;20036;-85
2022/06/03 23:58:59;;;;;;;22.85;19.38;;;14.90;99.90;;;;;;6155148;23;20065;-86
